Time;durP1;ratioP1;P1;durP2;ratioP2;P2;SDS_P1;SDS_P2;PMS_P1;PMS_P2;Temp;Humidity;BMP_temperature;BMP_pressure;BME280_temperature;BME280_humidity;BME280_pressure;Samples;Min_cycle;Max_cycle;Signal;HPM_P1;HPM_P2
2022/01/20 00:02:08;;;;;;;28.75;5.45;;;;;;;25.29;33.55;94893.66;5007372;28;20037;-40
2022/01/20 00:04:46;;;;;;;25.45;5.43;;;;;;;25.30;32.99;94884.59;5011717;28;20045;-40
2022/01/20 00:07:41;;;;;;;31.45;5.80;;;;;;;25.29;33.31;94888.31;5007043;28;20032;-40
2022/01/20 00:26:12;;;;;;;25.60;5.50;;;;;;;25.23;33.28;94873.47;5004004;28;20054;-40
2022/01/20 00:28:43;;;;;;;24.88;5.43;;;;;;;25.30;33.11;94873.13;5007315;28;20061;-40
2022/01/20 00:38:38;;;;;;;18.10;4.80;;;;;;;25.22;33.01;94882.47;5039736;28;20049;-40
2022/01/20 00:41:07;;;;;;;19.80;4.88;;;;;;;25.23;33.22;94886.78;5039598;28;20038;-40
2022/01/20 00:43:32;;;;;;;20.87;5.07;;;;;;;25.27;32.85;94882.47;5006528;28;20033;-40
2022/01/20 00:46:00;;;;;;;20.20;5.00;;;;;;;25.25;33.24;94873.19;5012705;28;20077;-40
2022/01/20 00:48:28;;;;;;;21.17;4.82;;;;;;;25.21;33.13;94880.91;5009968;28;20038;-40
2022/01/20 00:50:53;;;;;;;19.90;4.65;;;;;;;25.28;32.65;94881.41;5006948;28;20069;-40
2022/01/20 00:53:21;;;;;;;23.00;5.00;;;;;;;25.27;32.73;94877.16;5006916;28;20109;-40
2022/01/20 00:55:51;;;;;;;24.17;5.30;;;;;;;25.20;32.80;94887.28;5007533;28;20204;-40
2022/01/20 00:58:17;;;;;;;20.45;4.82;;;;;;;25.25;33.10;94879.31;5022470;28;20037;-40
2022/01/20 01:00:42;;;;;;;24.42;4.95;;;;;;;25.27;32.64;94879.03;5007357;28;20037;-40
2022/01/20 01:03:10;;;;;;;18.33;5.20;;;;;;;25.24;32.80;94871.59;5009260;28;20033;-40
2022/01/20 01:05:43;;;;;;;17.92;4.88;;;;;;;25.22;32.68;94885.16;5009601;28;20033;-40
2022/01/20 01:08:13;;;;;;;20.70;4.82;;;;;;;25.22;33.02;94887.81;5007955;28;20033;-40
2022/01/20 01:10:45;;;;;;;13.93;4.30;;;;;;;25.20;32.77;94881.97;5023668;28;20117;-40
2022/01/20 01:13:14;;;;;;;21.27;4.85;;;;;;;25.20;32.64;94883.84;5006914;28;20073;-40
2022/01/20 01:15:45;;;;;;;18.35;4.50;;;;;;;25.23;32.94;94876.13;5012460;28;20096;-40
2022/01/20 01:23:41;;;;;;;19.45;4.50;;;;;;;25.17;32.61;94879.88;5005550;28;20064;-40
2022/01/20 01:26:08;;;;;;;21.45;4.57;;;;;;;25.19;32.64;94877.75;4992479;28;20088;-40
2022/01/20 01:28:34;;;;;;;18.90;4.70;;;;;;;25.17;32.98;94866.56;4989294;28;20064;-40
2022/01/20 01:33:54;;;;;;;19.05;4.35;;;;;;;25.18;33.00;94873.47;5013105;28;20052;-39
2022/01/20 01:36:23;;;;;;;17.13;4.50;;;;;;;25.15;32.95;94879.34;5006949;28;20095;-40
2022/01/20 01:38:49;;;;;;;19.67;4.90;;;;;;;25.22;32.79;94890.47;5005747;28;20059;-40
2022/01/20 01:41:18;;;;;;;14.00;4.30;;;;;;;25.18;32.85;94884.13;4988481;28;20093;-40
2022/01/20 01:43:46;;;;;;;13.95;4.30;;;;;;;25.16;32.58;94883.59;5011460;28;20041;-40
2022/01/20 01:46:20;;;;;;;14.75;4.32;;;;;;;25.12;33.06;94885.22;4987840;28;20034;-40
2022/01/20 01:48:48;;;;;;;17.35;4.47;;;;;;;25.15;32.90;94882.00;4998196;28;20040;-40
2022/01/20 01:51:13;;;;;;;23.83;4.38;;;;;;;25.16;32.95;94876.41;5007587;28;20038;-39
2022/01/20 01:53:39;;;;;;;16.63;4.32;;;;;;;25.15;32.81;94879.34;5005932;28;20037;-40
2022/01/20 01:56:05;;;;;;;18.90;4.05;;;;;;;25.16;32.55;94875.63;4989046;28;20040;-40
2022/01/20 01:58:31;;;;;;;16.77;3.90;;;;;;;25.18;32.90;94876.91;5013124;28;20041;-40
2022/01/20 02:00:59;;;;;;;16.90;4.32;;;;;;;25.21;32.76;94888.09;5006476;28;20029;-40
2022/01/20 02:03:44;;;;;;;17.33;4.90;;;;;;;25.17;32.80;94880.66;5007675;28;20044;-40
2022/01/20 02:06:41;;;;;;;18.40;3.90;;;;;;;25.17;32.87;94882.53;5006075;28;20100;-40
2022/01/20 02:20:13;;;;;;;17.42;3.70;;;;;;;25.23;32.39;94889.44;5003998;28;20040;-40
2022/01/20 02:22:44;;;;;;;17.85;4.00;;;;;;;25.15;32.65;94890.81;5027822;28;20071;-40
2022/01/20 02:25:26;;;;;;;;;;;;;;;25.63;32.24;94898.16;4992164;28;20052;-40
2022/01/20 02:27:51;;;;;;;15.45;3.85;;;;;;;25.27;32.40;94893.13;5009049;28;19943;-40
2022/01/20 02:30:18;;;;;;;14.02;4.32;;;;;;;25.20;32.69;94894.50;5009798;28;20033;-40
2022/01/20 02:33:00;;;;;;;15.38;4.25;;;;;;;25.19;32.93;94888.38;5044028;28;20041;-39
2022/01/20 02:35:27;;;;;;;17.85;4.40;;;;;;;25.20;32.89;94889.94;4991206;28;20041;-40
2022/01/20 02:38:08;;;;;;;15.15;4.07;;;;;;;25.14;32.64;94883.88;5008856;28;20033;-40
2022/01/20 02:46:08;;;;;;;13.70;3.42;;;;;;;25.16;32.49;94857.00;5009023;28;20072;-40
2022/01/20 02:48:34;;;;;;;14.18;3.95;;;;;;;25.20;32.43;94852.69;4968496;28;20124;-40
2022/01/20 02:51:00;;;;;;;13.07;3.75;;;;;;;25.15;33.02;94856.22;5014069;28;20072;-40
2022/01/20 02:53:25;;;;;;;13.45;3.80;;;;;;;25.17;32.45;94854.06;5025934;28;20038;-40
2022/01/20 02:55:56;;;;;;;9.95;3.50;;;;;;;25.12;33.06;94847.97;5010304;28;20038;-40
2022/01/20 02:58:21;;;;;;;13.00;3.60;;;;;;;25.15;32.92;94845.56;5008918;28;20036;-40
2022/01/20 03:00:52;;;;;;;11.88;3.65;;;;;;;25.08;32.85;94846.94;5041697;28;20042;-40
2022/01/20 03:03:18;;;;;;;10.57;3.75;;;;;;;25.11;32.52;94843.72;5010318;28;20088;-40
2022/01/20 03:05:49;;;;;;;12.98;3.90;;;;;;;25.12;32.55;94848.75;4995641;28;20029;-40
2022/01/20 03:08:15;;;;;;;9.80;3.30;;;;;;;25.15;32.60;94847.41;5009568;28;20033;-40
2022/01/20 03:10:40;;;;;;;16.83;3.78;;;;;;;25.16;32.51;94841.81;4992092;28;20030;-40
2022/01/20 03:13:06;;;;;;;19.00;3.53;;;;;;;25.14;32.48;94845.84;5010821;28;20033;-40
2022/01/20 03:15:34;;;;;;;15.15;3.85;;;;;;;25.13;32.57;94838.91;5013325;28;20094;-40
2022/01/20 03:18:10;;;;;;;11.20;3.88;;;;;;;25.16;32.86;94835.69;5009443;28;20033;-40
2022/01/20 03:20:35;;;;;;;18.58;3.50;;;;;;;25.14;32.68;94843.16;5012372;28;20125;-40
2022/01/20 03:23:02;;;;;;;16.40;3.70;;;;;;;25.13;32.72;94846.88;5011514;28;20034;-40
2022/01/20 03:25:28;;;;;;;13.65;3.25;;;;;;;25.12;32.52;94850.63;5006117;28;20034;-40
2022/01/20 03:27:56;;;;;;;9.20;3.40;;;;;;;25.15;32.47;94852.72;5007785;28;20099;-40
2022/01/20 03:30:23;;;;;;;8.07;3.28;;;;;;;25.13;32.42;94852.22;5047940;28;20038;-40
2022/01/20 03:32:49;;;;;;;11.32;3.42;;;;;;;25.13;32.32;94857.53;5015769;28;20034;-40
2022/01/20 03:35:23;;;;;;;13.30;3.50;;;;;;;25.10;32.55;94860.78;5011806;28;20033;-40
2022/01/20 03:37:48;;;;;;;12.70;3.60;;;;;;;25.12;32.57;94863.94;4990735;28;20041;-40
2022/01/20 03:40:14;;;;;;;11.85;3.50;;;;;;;25.13;32.50;94866.34;5008206;28;20038;-40
2022/01/20 03:42:39;;;;;;;11.43;2.95;;;;;;;25.11;32.65;94865.00;5008677;28;20026;-40
2022/01/20 03:45:05;;;;;;;13.82;3.33;;;;;;;25.12;32.80;94859.41;5020342;28;20103;-40
2022/01/20 03:47:31;;;;;;;10.00;3.03;;;;;;;25.08;32.55;94861.03;5007702;28;20037;-39
2022/01/20 03:52:36;;;;;;;8.63;3.10;;;;;;;25.11;32.57;94854.34;5009337;28;20037;-40
2022/01/20 03:55:04;;;;;;;10.10;3.30;;;;;;;25.07;32.52;94856.78;4998330;28;20033;-40
2022/01/20 03:57:29;;;;;;;8.88;3.13;;;;;;;25.07;32.66;94848.78;4989177;28;20042;-40
2022/01/20 03:59:56;;;;;;;10.85;3.28;;;;;;;25.06;32.86;94857.09;5009450;28;20049;-40
2022/01/20 04:02:21;;;;;;;9.48;3.17;;;;;;;25.14;32.44;94856.47;5017703;28;20052;-40
2022/01/20 04:04:49;;;;;;;10.05;2.88;;;;;;;25.14;32.42;94869.78;4992533;28;20034;-40
2022/01/20 04:07:27;;;;;;;7.65;3.05;;;;;;;25.12;32.46;94863.94;5008884;28;20057;-40
2022/01/20 04:09:52;;;;;;;8.70;2.90;;;;;;;25.12;32.32;94862.06;5008667;28;20026;-40
2022/01/20 04:12:22;;;;;;;8.90;3.00;;;;;;;25.13;32.36;94870.84;5008496;28;20065;-41
2022/01/20 04:14:50;;;;;;;9.75;3.20;;;;;;;25.12;32.53;94859.41;5009357;28;20126;-40
2022/01/20 04:17:20;;;;;;;8.32;2.88;;;;;;;25.14;32.26;94859.94;5011170;28;20033;-40
2022/01/20 04:19:48;;;;;;;10.87;3.10;;;;;;;25.15;32.40;94874.03;5001555;28;20041;-40
2022/01/20 04:22:13;;;;;;;9.82;2.88;;;;;;;25.11;32.56;94867.66;5008233;28;20084;-40
2022/01/20 04:24:42;;;;;;;9.95;3.00;;;;;;;25.09;32.26;94867.97;4991302;28;20037;-40
2022/01/20 04:27:09;;;;;;;8.38;3.03;;;;;;;25.11;32.49;94867.66;5015343;28;20057;-40
2022/01/20 04:29:37;;;;;;;8.35;3.03;;;;;;;25.06;32.32;94865.06;5012865;28;20037;-40
2022/01/20 04:32:03;;;;;;;7.95;2.63;;;;;;;25.08;32.60;94866.38;5008131;28;20099;-40
2022/01/20 04:34:28;;;;;;;8.27;3.00;;;;;;;25.10;32.46;94864.22;5006907;28;20030;-40
2022/01/20 04:36:57;;;;;;;7.00;2.78;;;;;;;25.13;32.51;94861.00;5039137;28;20034;-40
2022/01/20 04:39:26;;;;;;;9.48;2.42;;;;;;;25.09;32.14;94867.97;5008507;28;20033;-40
2022/01/20 04:41:57;;;;;;;6.90;3.15;;;;;;;25.12;32.30;94874.59;5007145;28;20038;-40
2022/01/20 04:44:45;;;;;;;7.05;2.53;;;;;;;25.15;31.97;94872.16;5027583;28;20068;-40
2022/01/20 04:47:20;;;;;;;8.40;2.45;;;;;;;25.11;31.92;94865.00;5012158;28;20084;-40
2022/01/20 04:58:12;;;;;;;5.78;2.38;;;;;;;25.13;31.83;94866.34;5007248;28;20045;-40
2022/01/20 05:00:40;;;;;;;7.60;2.78;;;;;;;25.13;31.88;94865.53;5006207;28;20089;-40
2022/01/20 05:03:06;;;;;;;9.05;2.60;;;;;;;25.13;32.01;94857.53;5011560;28;20104;-40
2022/01/20 05:05:34;;;;;;;5.72;2.38;;;;;;;25.14;31.86;94859.94;4992558;28;20045;-40
2022/01/20 05:08:01;;;;;;;7.53;2.70;;;;;;;25.16;31.55;94871.09;5001803;28;20030;-40
2022/01/20 05:10:33;;;;;;;7.00;2.40;;;;;;;25.15;31.75;94863.38;5006086;28;20065;-40
2022/01/20 05:13:07;;;;;;;7.05;2.85;;;;;;;25.14;31.53;94873.22;4991842;28;20127;-40
2022/01/20 05:15:33;;;;;;;8.25;2.53;;;;;;;25.14;31.94;94873.22;5009367;28;20025;-40
2022/01/20 05:17:59;;;;;;;13.98;3.55;;;;;;;25.16;32.25;94880.94;5006474;28;20048;-40
2022/01/20 05:20:25;;;;;;;9.43;2.90;;;;;;;25.16;31.67;94875.63;4989338;28;20030;-40
2022/01/20 05:22:50;;;;;;;7.68;2.50;;;;;;;25.11;31.91;94880.97;5006856;28;20022;-40
2022/01/20 05:25:16;;;;;;;8.93;3.08;;;;;;;25.15;31.87;94884.66;5038844;28;20037;-40
2022/01/20 05:27:42;;;;;;;5.22;2.40;;;;;;;25.16;32.05;94881.72;5002518;28;20041;-39
2022/01/20 05:30:13;;;;;;;10.82;2.95;;;;;;;25.11;32.23;94880.97;5038888;28;20045;-40
2022/01/20 05:32:39;;;;;;;5.32;2.08;;;;;;;25.14;32.00;94891.06;5014696;28;20121;-40
2022/01/20 05:35:07;;;;;;;7.20;2.50;;;;;;;25.11;31.87;94887.09;5012331;28;20038;-39
2022/01/20 05:37:34;;;;;;;5.55;2.30;;;;;;;25.11;31.92;94891.63;5007091;28;20034;-40
2022/01/20 05:39:59;;;;;;;9.00;2.78;;;;;;;25.13;32.23;94887.63;5007304;28;20128;-40
2022/01/20 05:42:28;;;;;;;10.07;2.67;;;;;;;25.12;32.03;94880.69;5024129;28;20029;-40
2022/01/20 05:44:53;;;;;;;6.82;2.38;;;;;;;25.19;31.59;94888.38;5017016;28;20033;-40
2022/01/20 05:47:30;;;;;;;7.50;2.40;;;;;;;25.20;31.85;94883.84;5016460;28;20040;-39
2022/01/20 05:49:55;;;;;;;8.80;2.55;;;;;;;25.25;31.01;94892.63;5044152;28;20037;-40
2022/01/20 05:52:21;;;;;;;5.97;2.15;;;;;;;25.22;31.43;94887.81;5017873;28;20043;-40
2022/01/20 05:54:49;;;;;;;6.32;2.28;;;;;;;25.18;31.57;94882.25;5009997;28;20049;-40
2022/01/20 05:57:14;;;;;;;7.22;2.53;;;;;;;25.22;31.08;94879.03;4983666;28;20030;-40
2022/01/20 05:59:40;;;;;;;9.65;2.45;;;;;;;25.16;31.37;94872.97;4985542;28;20060;-40
2022/01/20 06:05:06;;;;;;;7.30;2.40;;;;;;;25.17;31.53;94871.91;4969561;28;20050;-40
2022/01/20 06:07:32;;;;;;;6.68;2.38;;;;;;;25.17;31.67;94871.91;4962151;28;20038;-40
2022/01/20 06:09:57;;;;;;;7.32;2.13;;;;;;;25.18;31.26;94881.47;4968987;28;20049;-40
2022/01/20 06:12:27;;;;;;;9.63;2.40;;;;;;;25.21;31.52;94872.94;4966982;28;20045;-40
2022/01/20 06:15:13;;;;;;;5.88;2.05;;;;;;;25.22;31.86;94871.06;4884564;29;20131;-40
2022/01/20 06:17:41;;;;;;;7.10;2.45;;;;;;;25.15;31.65;94866.84;4900988;29;20075;-40
2022/01/20 06:20:07;;;;;;;5.75;2.28;;;;;;;25.16;31.57;94865.75;4872130;29;20059;-39
2022/01/20 06:22:32;;;;;;;7.03;2.22;;;;;;;25.21;31.41;94867.59;4868818;29;20127;-39
2022/01/20 06:24:59;;;;;;;12.07;2.35;;;;;;;25.19;31.67;94864.44;4892011;29;20045;-39
2022/01/20 06:27:33;;;;;;;11.40;2.60;;;;;;;25.20;31.76;94857.22;4879584;29;20072;-39
2022/01/20 06:30:02;;;;;;;8.27;2.35;;;;;;;25.15;32.00;94850.88;4888498;29;20040;-39
2022/01/20 06:32:27;;;;;;;11.25;2.35;;;;;;;25.16;32.09;94852.47;4887174;29;20033;-39
2022/01/20 06:34:53;;;;;;;12.80;2.42;;;;;;;25.17;32.00;94855.94;4894310;29;20052;-39
2022/01/20 06:37:21;;;;;;;23.05;2.47;;;;;;;25.17;32.18;94864.69;4884369;29;20047;-39
2022/01/20 06:39:48;;;;;;;10.27;2.63;;;;;;;25.16;31.82;94872.97;4870209;29;20052;-39
2022/01/20 06:42:17;;;;;;;14.57;2.60;;;;;;;25.20;31.88;94867.88;4912869;29;20035;-39
2022/01/20 06:44:50;;;;;;;11.98;2.40;;;;;;;25.18;31.83;94866.28;4914839;28;20062;-39
2022/01/20 06:47:16;;;;;;;7.63;2.13;;;;;;;25.19;31.23;94853.78;5014451;28;20042;-39
2022/01/20 06:49:41;;;;;;;9.57;2.65;;;;;;;25.22;31.08;94853.22;5006932;28;20034;-39
2022/01/20 06:52:09;;;;;;;9.43;2.55;;;;;;;25.20;31.91;94850.03;5003699;28;20044;-39
2022/01/20 06:54:34;;;;;;;12.85;2.78;;;;;;;25.20;31.28;94868.66;5009295;28;20041;-39
2022/01/20 06:57:01;;;;;;;7.32;2.17;;;;;;;25.23;31.33;94868.16;5003662;28;20044;-39
2022/01/20 06:59:26;;;;;;;12.75;2.80;;;;;;;25.22;32.11;94877.16;4995487;28;20038;-39
2022/01/20 07:02:01;;;;;;;9.13;3.28;;;;;;;25.18;31.90;94882.25;5004361;28;20045;-39
2022/01/20 07:04:29;;;;;;;8.95;2.65;;;;;;;25.23;31.94;94886.78;5038951;28;20057;-39
2022/01/20 07:06:55;;;;;;;5.32;2.00;;;;;;;25.16;31.79;94889.72;5011785;28;20038;-39
2022/01/20 07:09:22;;;;;;;10.82;2.40;;;;;;;25.22;31.74;94890.47;4995739;28;20135;-39
2022/01/20 07:11:48;;;;;;;13.20;2.50;;;;;;;25.24;31.71;94884.91;5012916;28;20069;-39
2022/01/20 07:14:16;;;;;;;11.60;2.40;;;;;;;25.23;31.72;94888.66;5016023;28;20037;-39
2022/01/20 07:16:42;;;;;;;11.30;2.60;;;;;;;25.19;31.90;94891.03;5009220;28;20042;-39
2022/01/20 07:19:13;;;;;;;7.40;2.10;;;;;;;25.20;31.97;94895.28;5015415;28;20125;-39
2022/01/20 07:21:38;;;;;;;8.27;2.40;;;;;;;25.24;31.45;94888.34;5042052;28;20042;-39
2022/01/20 07:24:13;;;;;;;7.18;2.05;;;;;;;25.22;31.81;94897.66;5013536;28;20091;-39
2022/01/20 07:26:38;;;;;;;8.27;2.55;;;;;;;25.19;32.23;94899.03;5009159;28;20061;-39
2022/01/20 07:29:07;;;;;;;9.52;2.33;;;;;;;25.15;31.86;94908.63;5004089;28;20072;-39
2022/01/20 07:31:33;;;;;;;8.27;2.30;;;;;;;25.16;31.63;94915.53;5008131;28;20052;-39
2022/01/20 07:34:08;;;;;;;7.28;2.33;;;;;;;25.12;31.28;94917.16;4992122;28;20041;-40
2022/01/20 07:36:33;;;;;;;6.63;2.35;;;;;;;25.12;31.45;94915.28;5015514;28;20045;-39
2022/01/20 07:38:59;;;;;;;5.70;2.22;;;;;;;25.15;31.68;94924.59;5010927;28;20042;-39
2022/01/20 07:41:24;;;;;;;3.80;1.90;;;;;;;25.15;31.88;94925.41;5008686;28;20041;-40
2022/01/20 07:43:49;;;;;;;6.20;2.58;;;;;;;25.14;31.78;94920.34;5038568;28;20077;-39
2022/01/20 07:46:17;;;;;;;6.40;2.17;;;;;;;25.16;31.50;94920.88;5016319;28;20080;-39
2022/01/20 07:48:43;;;;;;;4.90;2.10;;;;;;;25.13;32.06;94929.38;5006219;28;20053;-39
2022/01/20 07:51:17;;;;;;;6.80;2.13;;;;;;;25.06;32.04;94919.06;4993723;28;20033;-40
2022/01/20 07:53:46;;;;;;;5.10;1.88;;;;;;;25.06;32.53;94916.41;5010077;28;20040;-39
2022/01/20 07:56:14;;;;;;;7.55;2.38;;;;;;;25.06;32.28;94915.63;5014101;28;20037;-39
2022/01/20 07:58:42;;;;;;;6.47;2.00;;;;;;;25.08;32.28;94916.13;5008460;28;20125;-39
2022/01/20 08:01:07;;;;;;;6.53;1.90;;;;;;;25.12;32.35;94917.97;5016877;28;20077;-39
2022/01/20 08:03:33;;;;;;;6.90;2.10;;;;;;;25.12;32.23;94902.00;5009687;28;20164;-40
2022/01/20 08:05:58;;;;;;;6.53;2.10;;;;;;;25.15;32.03;94920.06;5012953;28;20038;-39
2022/01/20 08:08:27;;;;;;;6.50;2.50;;;;;;;25.12;32.48;94911.84;5008658;28;20041;-39
2022/01/20 08:10:52;;;;;;;5.57;1.90;;;;;;;25.16;32.54;94911.00;5012122;28;20116;-39
2022/01/20 08:13:18;;;;;;;5.50;1.90;;;;;;;25.16;32.55;94921.66;5014658;28;20033;-39
2022/01/20 08:15:45;;;;;;;8.68;1.98;;;;;;;25.16;32.81;94903.03;5007453;28;20044;-39
2022/01/20 08:18:11;;;;;;;7.38;2.15;;;;;;;25.17;32.70;94904.63;5013539;28;20129;-39
2022/01/20 08:20:38;;;;;;;5.07;2.38;;;;;;;25.19;32.85;94904.34;5011292;28;20125;-39
2022/01/20 08:23:04;;;;;;;4.30;1.98;;;;;;;25.16;32.91;94905.69;5037757;28;20065;-39
2022/01/20 08:25:47;;;;;;;5.40;1.98;;;;;;;25.21;32.65;94907.53;5001951;28;20092;-39
2022/01/20 08:28:12;;;;;;;4.43;1.73;;;;;;;25.19;32.53;94920.31;5001691;28;20046;-39
2022/01/20 08:30:41;;;;;;;4.68;2.00;;;;;;;25.21;32.65;94928.81;5012027;28;20044;-39
2022/01/20 08:33:11;;;;;;;5.03;2.20;;;;;;;25.22;32.64;94934.94;5008944;28;20045;-39
2022/01/20 08:35:37;;;;;;;4.65;1.88;;;;;;;25.22;32.84;94942.91;5017899;28;20045;-39
2022/01/20 08:38:06;;;;;;;7.78;2.05;;;;;;;25.21;32.71;94941.31;5016434;28;20167;-40
2022/01/20 08:40:48;;;;;;;4.45;1.88;;;;;;;25.22;32.71;94948.25;5025115;28;20042;-39
2022/01/20 08:43:13;;;;;;;4.75;1.70;;;;;;;25.22;32.76;94949.03;5007704;28;20041;-39
2022/01/20 08:45:39;;;;;;;6.35;1.85;;;;;;;25.19;32.56;94946.94;5028411;28;20041;-39
2022/01/20 08:48:12;;;;;;;5.43;1.95;;;;;;;25.19;32.57;94962.91;5007811;28;20108;-39
2022/01/20 08:50:38;;;;;;;4.90;2.13;;;;;;;25.17;32.74;94962.38;5023434;28;20200;-39
2022/01/20 08:53:09;;;;;;;5.28;2.00;;;;;;;25.15;33.06;94969.81;4978092;28;20041;-39
2022/01/20 08:55:38;;;;;;;5.43;1.95;;;;;;;25.16;33.30;94976.75;5002297;28;20044;-39
2022/01/20 08:58:06;;;;;;;7.20;2.08;;;;;;;25.23;32.80;94979.94;5028886;28;20061;-39
2022/01/20 09:00:33;;;;;;;5.07;1.83;;;;;;;25.15;33.31;94988.44;5009916;28;20064;-39
2022/01/20 09:03:01;;;;;;;7.63;1.95;;;;;;;25.15;33.31;94993.78;5021216;28;20036;-39
2022/01/20 09:05:27;;;;;;;4.95;2.33;;;;;;;25.16;33.22;94995.38;5010474;28;20049;-39
2022/01/20 09:07:53;;;;;;;3.65;1.70;;;;;;;25.19;33.03;95000.16;4999755;28;20038;-39
2022/01/20 09:10:22;;;;;;;3.30;1.80;;;;;;;25.17;33.27;95008.41;5013178;28;20111;-39
2022/01/20 09:15:38;;;;;;;7.75;2.15;;;;;;;25.21;33.12;95003.34;5008421;28;20043;-39
2022/01/20 09:18:08;;;;;;;6.43;2.10;;;;;;;25.15;33.21;95005.25;5013886;28;20042;-39
2022/01/20 09:20:39;;;;;;;9.23;2.10;;;;;;;25.22;32.95;95006.78;4994384;28;20036;-39
2022/01/20 09:23:05;;;;;;;7.90;2.28;;;;;;;25.21;33.09;95003.34;5013373;28;20208;-39
2022/01/20 09:25:30;;;;;;;11.30;2.33;;;;;;;25.23;33.21;94992.47;5009039;28;20046;-39
2022/01/20 09:28:00;;;;;;;7.07;2.00;;;;;;;25.17;33.13;94991.66;5008027;28;20065;-39
2022/01/20 09:30:26;;;;;;;8.57;2.10;;;;;;;25.25;33.32;94988.44;5009849;28;20076;-39
2022/01/20 09:33:09;;;;;;;8.23;2.15;;;;;;;25.23;33.28;94984.47;4990625;28;20057;-39
2022/01/20 09:35:47;;;;;;;13.52;2.25;;;;;;;25.24;32.85;94986.84;5026480;28;20037;-39
2022/01/20 09:38:12;;;;;;;10.00;2.42;;;;;;;25.23;33.20;94979.16;5011263;28;20173;-39
2022/01/20 09:40:40;;;;;;;12.85;2.53;;;;;;;25.24;33.11;94986.84;5011945;28;20045;-39
2022/01/20 09:43:14;;;;;;;11.20;2.42;;;;;;;25.22;33.28;94999.59;5018798;28;20097;-39
2022/01/20 09:45:39;;;;;;;9.60;2.20;;;;;;;25.23;33.44;95005.78;5010082;28;20077;-39
2022/01/20 09:48:13;;;;;;;10.20;2.30;;;;;;;25.21;33.21;95014.00;4982401;28;20059;-39
2022/01/20 09:50:40;;;;;;;13.27;2.60;;;;;;;25.24;33.41;95010.78;5020545;28;20053;-40
2022/01/20 09:53:07;;;;;;;9.25;2.00;;;;;;;25.26;33.33;95005.19;5018126;28;20050;-39
2022/01/20 09:55:42;;;;;;;9.90;2.33;;;;;;;25.22;33.32;95012.91;5031928;28;20056;-39
2022/01/20 09:58:10;;;;;;;11.15;2.20;;;;;;;25.24;33.24;95024.09;5014715;28;20107;-39
2022/01/20 10:00:36;;;;;;;10.30;1.83;;;;;;;25.24;33.21;95026.75;4991635;28;20056;-39
2022/01/20 10:03:13;;;;;;;11.48;2.28;;;;;;;25.23;33.28;95041.16;5014433;28;20045;-39
2022/01/20 10:05:44;;;;;;;8.07;2.13;;;;;;;25.22;33.08;95042.19;5030075;28;20036;-39
2022/01/20 10:08:09;;;;;;;;;;;;;;;25.77;32.24;95042.13;5008251;28;20037;-39
2022/01/20 10:10:50;;;;;;;8.02;2.05;;;;;;;25.34;33.28;95050.69;5003779;28;19913;-39
2022/01/20 10:13:17;;;;;;;9.38;2.10;;;;;;;25.25;33.18;95046.22;5035654;28;20034;-40
2022/01/20 10:16:08;;;;;;;6.22;2.03;;;;;;;25.32;33.05;95044.03;5020577;28;20034;-39
2022/01/20 10:18:43;;;;;;;9.85;2.42;;;;;;;25.24;33.44;95050.72;5004610;28;20060;-39
2022/01/20 10:21:11;;;;;;;9.57;2.08;;;;;;;25.22;33.31;95055.50;5015170;28;20069;-39
2022/01/20 10:23:49;;;;;;;7.95;2.38;;;;;;;25.23;33.28;95053.69;5007940;28;20091;-40
2022/01/20 10:26:19;;;;;;;6.85;1.98;;;;;;;25.24;33.40;95049.94;5008420;28;20053;-39
2022/01/20 10:28:47;;;;;;;9.50;2.13;;;;;;;25.24;33.34;95039.28;4981015;28;20037;-39
2022/01/20 10:31:15;;;;;;;8.02;2.15;;;;;;;25.23;33.07;95049.16;5011458;28;20034;-39
2022/01/20 10:33:41;;;;;;;5.95;2.00;;;;;;;25.25;33.10;95049.66;4999864;28;20045;-39
2022/01/20 10:36:08;;;;;;;7.95;1.90;;;;;;;25.22;33.32;95047.50;5007493;28;20048;-39
2022/01/20 10:39:00;;;;;;;10.02;2.50;;;;;;;25.35;33.57;95046.16;4998507;28;20048;-39
2022/01/20 10:41:32;;;;;;;7.90;2.10;;;;;;;25.26;33.66;95032.59;5007951;28;20068;-39
2022/01/20 10:44:05;;;;;;;5.95;1.75;;;;;;;25.26;33.45;95027.28;5012260;28;20052;-42
2022/01/20 10:46:49;;;;;;;6.45;1.90;;;;;;;25.31;33.43;95024.59;5023261;28;20042;-39
2022/01/20 10:49:15;;;;;;;7.18;2.40;;;;;;;25.26;33.21;95021.16;5013106;28;20106;-39
2022/01/20 10:51:43;;;;;;;11.55;2.10;;;;;;;25.24;33.12;95020.66;5015446;28;20112;-39
2022/01/20 10:54:13;;;;;;;7.13;2.10;;;;;;;25.24;32.82;95023.31;5046444;28;20061;-39
2022/01/20 10:56:59;;;;;;;6.20;2.20;;;;;;;25.34;32.13;95020.59;5014022;28;20137;-39
2022/01/20 10:59:24;;;;;;;8.57;2.03;;;;;;;25.25;31.63;95015.06;5013959;28;20065;-39
2022/01/20 11:02:06;;;;;;;5.53;2.10;;;;;;;25.21;33.00;95013.16;5011894;28;20085;-39
2022/01/20 11:04:32;;;;;;;9.07;1.75;;;;;;;25.18;32.69;94999.34;5019409;28;20030;-39
2022/01/20 11:07:01;;;;;;;7.53;1.77;;;;;;;25.15;33.29;95009.75;5007279;28;20076;-39
2022/01/20 11:09:27;;;;;;;7.57;1.95;;;;;;;25.16;33.16;95001.50;5036063;28;20041;-39
2022/01/20 11:12:13;;;;;;;6.90;1.73;;;;;;;25.20;33.43;94996.41;5026366;28;20120;-39
2022/01/20 11:14:39;;;;;;;7.40;1.90;;;;;;;25.18;33.54;94996.69;4987237;28;20131;-39
2022/01/20 11:17:04;;;;;;;4.40;1.77;;;;;;;25.21;33.42;94997.19;5029950;28;20053;-39
2022/01/20 11:19:37;;;;;;;6.10;1.83;;;;;;;25.18;33.77;94990.56;5014677;28;20098;-39
2022/01/20 11:22:13;;;;;;;8.30;1.80;;;;;;;25.20;33.44;94983.09;5022855;28;20042;-39
2022/01/20 11:24:42;;;;;;;7.25;2.00;;;;;;;25.20;33.51;94975.13;5022752;28;20030;-39
2022/01/20 11:27:10;;;;;;;7.30;1.85;;;;;;;25.18;33.54;94971.94;5006894;28;20087;-39
2022/01/20 11:29:55;;;;;;;6.80;1.92;;;;;;;25.23;33.59;94968.50;5013011;28;20105;-39
2022/01/20 11:32:25;;;;;;;5.25;1.60;;;;;;;25.22;33.96;94967.66;5026916;28;20053;-39
2022/01/20 11:35:04;;;;;;;5.22;1.92;;;;;;;25.27;33.67;94985.50;5006079;28;20172;-39
2022/01/20 11:37:38;;;;;;;5.00;1.70;;;;;;;25.25;33.70;94980.44;5017969;28;20119;-39
2022/01/20 11:40:10;;;;;;;5.32;1.80;;;;;;;25.23;33.91;94973.81;5009608;28;20100;-39
2022/01/20 11:42:36;;;;;;;9.27;1.90;;;;;;;25.28;34.10;94963.91;5007656;28;20050;-39
2022/01/20 11:45:21;;;;;;;5.18;1.65;;;;;;;25.23;33.97;94965.84;4997453;28;20044;-39
2022/01/20 11:47:46;;;;;;;8.93;2.00;;;;;;;25.26;34.35;94971.38;4992807;28;20069;-39
2022/01/20 11:50:16;;;;;;;6.20;1.88;;;;;;;25.25;34.12;94966.34;4994781;28;20033;-39
2022/01/20 11:52:41;;;;;;;7.57;1.83;;;;;;;25.27;34.06;94954.34;5013742;28;20099;-39
2022/01/20 11:55:13;;;;;;;8.82;1.90;;;;;;;25.26;34.23;94958.06;5007782;28;20046;-39
2022/01/20 11:57:40;;;;;;;6.65;2.00;;;;;;;25.22;34.58;94954.34;5007091;28;20026;-39
2022/01/20 12:00:34;;;;;;;9.10;2.03;;;;;;;25.33;34.62;94955.91;5012624;28;20079;-39
2022/01/20 12:03:10;;;;;;;15.63;2.30;;;;;;;25.23;34.63;94958.66;5005890;28;20045;-39
2022/01/20 12:05:38;;;;;;;7.55;1.80;;;;;;;25.25;34.68;94969.03;5007726;28;20159;-39
2022/01/20 12:08:15;;;;;;;6.57;1.80;;;;;;;25.29;34.96;94973.50;5037364;28;20037;-39
2022/01/20 12:10:43;;;;;;;9.90;2.05;;;;;;;25.32;34.56;94974.81;4990262;28;20041;-39
2022/01/20 12:13:18;;;;;;;7.63;2.30;;;;;;;25.18;33.60;94980.72;5006330;28;20041;-39
2022/01/20 12:15:52;;;;;;;6.53;2.33;;;;;;;25.09;29.05;94978.91;5013574;28;20041;-39
2022/01/20 12:18:17;;;;;;;2.53;2.20;;;;;;;25.00;25.63;94985.88;4998617;28;20053;-39
2022/01/20 12:20:53;;;;;;;4.15;2.05;;;;;;;24.97;25.22;94977.38;5006748;28;20034;-39
2022/01/20 12:23:24;;;;;;;3.20;1.85;;;;;;;25.00;25.52;94969.91;5006841;28;20039;-39
2022/01/20 12:25:51;;;;;;;;;;;;;;;25.47;25.92;94966.72;5016801;28;20037;-39
2022/01/20 12:28:18;;;;;;;3.90;1.83;;;;;;;25.08;26.28;94969.34;5003915;28;19933;-39
2022/01/20 12:30:49;;;;;;;2.88;1.50;;;;;;;25.03;26.58;94972.81;5007816;28;20041;-39
2022/01/20 12:33:16;;;;;;;2.70;1.45;;;;;;;25.00;26.80;94964.59;5007059;28;20038;-39
2022/01/20 12:35:54;;;;;;;4.43;1.50;;;;;;;25.00;27.15;94965.41;5013497;28;20045;-39
2022/01/20 12:38:28;;;;;;;5.38;1.40;;;;;;;24.97;26.97;94960.63;4995991;28;20033;-39
2022/01/20 12:41:02;;;;;;;3.50;1.65;;;;;;;24.97;27.65;94966.72;4991450;28;20052;-39
2022/01/20 12:43:57;;;;;;;2.30;1.42;;;;;;;24.94;27.44;94967.31;4997931;28;20026;-39
2022/01/20 12:46:32;;;;;;;4.45;1.52;;;;;;;24.95;28.06;94960.09;5003020;28;20077;-40
2022/01/20 12:49:08;;;;;;;5.22;1.42;;;;;;;24.94;27.83;94959.31;5014650;28;20061;-39